createdAt,value
2023-04-02T00:05:52.142Z,86.99
2023-04-02T00:15:58.112Z,86.12
2023-04-02T00:26:00.583Z,84.73
2023-04-02T00:36:08.014Z,84.35
2023-04-02T00:46:24.504Z,87.59
2023-04-02T00:56:39.847Z,87.35
2023-04-02T01:06:44.124Z,85.33
2023-04-02T01:16:55.438Z,86.01
2023-04-02T01:27:01.350Z,86.00
2023-04-02T01:37:24.487Z,84.86
2023-04-02T01:47:29.145Z,84.06
2023-04-02T06:27:12.069Z,95.53
2023-04-02T06:37:27.937Z,92.94
2023-04-02T06:47:47.453Z,88.93
2023-04-02T06:57:49.973Z,85.92
2023-04-02T07:07:52.512Z,85.31
2023-04-02T07:17:57.779Z,85.27
2023-04-02T07:28:01.686Z,85.72
2023-04-02T07:38:04.162Z,86.19
2023-04-02T07:48:07.391Z,84.35
2023-04-02T07:58:10.172Z,82.95
2023-04-02T08:08:12.552Z,83.87
2023-04-02T08:18:15.005Z,84.22
2023-04-02T08:28:17.678Z,83.79
2023-04-02T08:38:21.994Z,83.48
2023-04-02T08:48:24.717Z,83.08
2023-04-02T08:58:39.752Z,83.95
2023-04-02T09:08:44.063Z,81.12
2023-04-02T09:18:48.140Z,81.64
2023-04-02T09:29:05.622Z,80.30
2023-04-02T09:39:21.409Z,80.84
2023-04-02T09:49:29.819Z,80.16
2023-04-02T09:59:32.269Z,82.61
2023-04-02T10:09:37.213Z,80.89
2023-04-02T10:19:43.727Z,82.47
2023-04-02T10:30:11.423Z,82.15
2023-04-02T10:40:46.507Z,81.89
2023-04-02T10:51:03.826Z,81.24
2023-04-02T11:01:18.060Z,79.72
2023-04-02T11:11:38.972Z,80.09
2023-04-02T11:22:01.474Z,81.13
2023-04-02T11:32:30.073Z,81.83
2023-04-02T11:42:34.538Z,81.43
2023-04-02T11:53:00.097Z,81.93
2023-04-02T12:03:35.475Z,80.33
2023-04-02T12:13:41.000Z,76.95
2023-04-02T12:23:46.596Z,77.19
2023-04-02T12:33:53.353Z,78.24
2023-04-02T12:44:04.628Z,78.83
2023-04-02T12:54:07.454Z,77.28
2023-04-02T13:04:12.704Z,78.00
2023-04-02T13:14:21.464Z,78.10
2023-04-02T13:24:29.238Z,78.75
2023-04-02T13:34:32.097Z,76.17
2023-04-02T13:44:37.821Z,75.88
2023-04-02T13:54:53.187Z,77.22
2023-04-02T14:05:13.769Z,73.34
2023-04-02T14:15:23.133Z,75.31
2023-04-02T14:25:31.395Z,73.30
2023-04-02T14:35:45.432Z,75.03
2023-04-02T14:45:59.064Z,73.81
2023-04-02T14:56:06.438Z,75.97
2023-04-02T15:06:18.742Z,75.61
2023-04-02T15:16:23.654Z,75.49
2023-04-02T15:26:47.138Z,75.60
2023-04-02T15:37:02.938Z,75.97
2023-04-02T15:47:36.691Z,76.49
2023-04-02T15:58:01.015Z,75.59
2023-04-02T16:08:18.476Z,77.37
2023-04-02T16:18:31.810Z,77.74
2023-04-02T16:28:43.432Z,78.24
2023-04-02T16:38:54.720Z,77.46
2023-04-02T16:49:15.218Z,77.08
2023-04-02T16:59:59.352Z,78.18
2023-04-02T17:10:19.644Z,77.33
2023-04-02T17:20:24.303Z,77.81
2023-04-02T17:30:43.792Z,77.29
2023-04-02T17:40:48.716Z,77.78
2023-04-02T17:51:18.342Z,77.37
2023-04-02T18:01:30.646Z,77.84
2023-04-02T18:11:54.539Z,77.86
2023-04-02T18:22:17.375Z,77.97
2023-04-02T18:32:25.963Z,78.43
2023-04-02T18:42:52.512Z,78.01
2023-04-02T18:52:55.270Z,77.59
2023-04-02T19:03:04.132Z,77.12
2023-04-02T19:13:18.108Z,77.36
2023-04-02T19:23:49.990Z,77.90
2023-04-02T19:34:16.535Z,77.37
2023-04-02T19:44:20.550Z,77.67
2023-04-02T19:54:23.212Z,78.23
2023-04-02T20:04:25.869Z,78.24
2023-04-02T20:14:28.403Z,78.43
2023-04-02T20:24:30.738Z,78.37
2023-04-02T20:40:11.273Z,78.67
2023-04-02T20:50:13.579Z,78.52
2023-04-02T21:00:16.309Z,78.38
2023-04-02T21:10:18.768Z,78.10
2023-04-02T21:20:21.306Z,77.64
2023-04-02T21:30:23.616Z,77.31
2023-04-02T21:40:26.320Z,77.37
2023-04-02T21:50:28.865Z,75.45
2023-04-02T22:00:31.209Z,68.55
2023-04-02T22:10:36.082Z,65.98
2023-04-02T22:20:39.465Z,66.21
2023-04-02T22:30:42.198Z,65.94
2023-04-02T22:40:44.603Z,65.96
2023-04-02T22:50:51.058Z,66.53
2023-04-02T23:00:53.407Z,67.81
2023-04-02T23:11:05.555Z,66.77
2023-04-02T23:21:08.168Z,66.92
2023-04-02T23:31:19.280Z,68.07
2023-04-02T23:41:23.968Z,68.49
2023-04-02T23:51:26.906Z,71.26
